Time;durP1;ratioP1;P1;durP2;ratioP2;P2;SDS_P1;SDS_P2;PMS_P1;PMS_P2;Temp;Humidity;BMP_temperature;BMP_pressure;BME280_temperature;BME280_humidity;BME280_pressure;Samples;Min_cycle;Max_cycle;Signal;HPM_P1;HPM_P2
2023/04/15 00:00:58;;;;;;;1.20;0.90;;;;;;;7.92;100.00;99772.42;105321;1256;67352;-51
2023/04/15 00:03:28;;;;;;;1.50;0.80;;;;;;;7.90;100.00;99777.69;108894;1258;72953;-49
2023/04/15 00:06:02;;;;;;;1.00;0.70;;;;;;;7.91;100.00;99778.72;108883;1259;59932;-49
2023/04/15 00:08:30;;;;;;;4.70;0.90;;;;;;;7.90;100.00;99776.27;108919;1257;59572;-51
2023/04/15 00:11:01;;;;;;;1.30;0.90;;;;;;;7.89;100.00;99769.71;108878;1255;72935;-47
2023/04/15 00:13:33;;;;;;;3.10;1.10;;;;;;;7.86;100.00;99771.58;108270;1257;67075;-49
2023/04/15 00:16:01;;;;;;;3.30;0.80;;;;;;;7.85;100.00;99776.79;105570;1269;71035;-49
2023/04/15 00:18:30;;;;;;;2.60;0.80;;;;;;;7.84;100.00;99775.39;105394;1257;62049;-53
2023/04/15 00:20:58;;;;;;;1.80;0.80;;;;;;;7.84;100.00;99770.60;105838;1258;61650;-51
2023/04/15 00:23:26;;;;;;;2.00;1.10;;;;;;;7.83;100.00;99767.96;105547;1260;74303;-48
2023/04/15 00:25:55;;;;;;;2.20;0.80;;;;;;;7.83;100.00;99766.50;105302;1261;65060;-50
2023/04/15 00:28:23;;;;;;;1.60;0.80;;;;;;;7.83;100.00;99757.73;105573;1260;72286;-48
2023/04/15 00:30:51;;;;;;;1.20;0.90;;;;;;;7.84;100.00;99755.58;105402;1260;62995;-52
2023/04/15 00:33:19;;;;;;;1.30;0.80;;;;;;;7.85;100.00;99751.80;107331;1259;60339;-48
2023/04/15 00:35:47;;;;;;;4.20;0.90;;;;;;;7.82;100.00;99748.33;105433;1257;73830;-46
2023/04/15 00:38:16;;;;;;;2.60;0.70;;;;;;;7.80;100.00;99749.69;105386;1259;66020;-48
2023/04/15 00:40:44;;;;;;;3.90;0.70;;;;;;;7.78;100.00;99754.39;105647;1260;72803;-49
2023/04/15 00:43:12;;;;;;;5.10;0.90;;;;;;;7.78;100.00;99758.48;105865;1260;62131;-47
2023/04/15 00:45:42;;;;;;;0.80;0.70;;;;;;;7.77;100.00;99756.55;105789;1258;60496;-48
2023/04/15 00:48:10;;;;;;;2.60;0.80;;;;;;;7.73;100.00;99765.65;106078;1259;71669;-48
2023/04/15 00:50:39;;;;;;;1.10;0.70;;;;;;;7.67;100.00;99767.84;105312;1261;65461;-48
2023/04/15 00:53:07;;;;;;;3.40;1.20;;;;;;;7.60;100.00;99769.69;105327;1255;72765;-53
2023/04/15 00:55:36;;;;;;;2.10;0.60;;;;;;;7.56;100.00;99765.71;105320;1265;60979;-52
2023/04/15 00:58:12;;;;;;;1.80;0.70;;;;;;;7.52;100.00;99766.21;105312;1256;60466;-51
2023/04/15 01:00:43;;;;;;;1.10;0.90;;;;;;;7.48;100.00;99765.63;105844;1266;72996;-54
2023/04/15 01:03:14;;;;;;;0.80;0.70;;;;;;;7.44;100.00;99763.27;105297;1261;68283;-49
2023/04/15 01:05:42;;;;;;;1.30;0.70;;;;;;;7.43;100.00;99770.27;105380;1257;71778;-48
2023/04/15 01:08:11;;;;;;;3.50;0.80;;;;;;;7.42;100.00;99769.25;105440;1254;63188;-49
2023/04/15 01:10:39;;;;;;;0.80;0.70;;;;;;;7.40;100.00;99766.13;106101;1256;60511;-52
2023/04/15 01:13:07;;;;;;;2.70;1.00;;;;;;;7.38;100.00;99766.56;105456;1254;75072;-53
2023/04/15 01:15:35;;;;;;;1.90;0.80;;;;;;;7.36;100.00;99768.39;105496;1259;66385;-52
2023/04/15 01:18:03;;;;;;;2.20;0.90;;;;;;;7.35;100.00;99771.45;105678;1259;72088;-50
2023/04/15 01:20:33;;;;;;;3.50;0.90;;;;;;;7.35;100.00;99775.39;105632;1258;61964;-51
2023/04/15 01:23:01;;;;;;;0.90;0.80;;;;;;;7.34;100.00;99778.64;105506;1257;60420;-53
2023/04/15 01:25:32;;;;;;;1.70;0.90;;;;;;;7.33;100.00;99785.80;105641;1255;74455;-54
2023/04/15 01:30:33;;;;;;;1.40;0.80;;;;;;;7.31;100.00;99804.29;102460;1292;601086;-51
2023/04/15 01:33:02;;;;;;;2.80;0.90;;;;;;;7.30;100.00;99823.06;108427;1267;60649;-53
2023/04/15 01:35:31;;;;;;;1.40;0.90;;;;;;;7.29;100.00;99820.24;108388;1266;59609;-54
2023/04/15 01:38:03;;;;;;;1.30;0.90;;;;;;;7.27;100.00;99815.84;108442;1267;70883;-53
2023/04/15 01:40:32;;;;;;;0.80;0.80;;;;;;;7.24;100.00;99815.05;108340;1267;67717;-54
2023/04/15 01:43:01;;;;;;;1.40;0.70;;;;;;;7.19;100.00;99812.17;108364;1269;71046;-54
2023/04/15 01:45:29;;;;;;;0.90;0.70;;;;;;;7.16;100.00;99812.09;108478;1263;62379;-54
2023/04/15 01:47:57;;;;;;;1.30;0.80;;;;;;;7.15;100.00;99814.98;106692;1266;60581;-52
2023/04/15 01:50:26;;;;;;;1.70;0.70;;;;;;;7.13;100.00;99817.91;108420;1262;71431;-54
2023/04/15 01:52:55;;;;;;;3.90;0.80;;;;;;;7.12;100.00;99815.44;108569;1262;68264;-53
2023/04/15 01:55:24;;;;;;;2.20;0.70;;;;;;;7.13;100.00;99820.79;108514;1267;72621;-55
2023/04/15 01:57:52;;;;;;;1.20;0.70;;;;;;;7.14;100.00;99820.00;108459;1267;62244;-54
2023/04/15 02:00:21;;;;;;;1.00;0.80;;;;;;;7.16;100.00;99820.85;105648;1272;59664;-53
2023/04/15 02:02:50;;;;;;;1.60;1.10;;;;;;;7.16;100.00;99823.52;108538;1262;74695;-54
2023/04/15 02:05:18;;;;;;;1.80;0.80;;;;;;;7.13;100.00;99820.61;108581;1264;66724;-53
2023/04/15 02:07:47;;;;;;;2.20;0.80;;;;;;;7.09;100.00;99825.89;108454;1263;71980;-54
2023/04/15 02:10:17;;;;;;;1.00;0.90;;;;;;;7.05;100.00;99823.89;108541;1264;62234;-55
2023/04/15 02:12:46;;;;;;;1.00;0.80;;;;;;;7.01;100.00;99824.36;105371;1268;59775;-52
2023/04/15 02:15:14;;;;;;;1.10;0.70;;;;;;;6.99;100.00;99819.25;108496;1264;73050;-54
2023/04/15 02:17:44;;;;;;;3.50;1.00;;;;;;;6.99;100.00;99822.29;108895;1257;67518;-55
2023/04/15 02:20:17;;;;;;;1.80;0.80;;;;;;;7.00;100.00;99822.28;109018;1257;72840;-54
2023/04/15 02:22:44;;;;;;;1.50;1.00;;;;;;;7.00;100.00;99821.36;109031;1257;61275;-53
2023/04/15 02:25:17;;;;;;;1.60;0.90;;;;;;;7.00;100.00;99817.80;109001;1257;59098;-55
2023/04/15 02:27:45;;;;;;;1.40;1.00;;;;;;;7.01;100.00;99823.31;107654;1260;71225;-52
2023/04/15 02:30:13;;;;;;;1.10;0.90;;;;;;;7.01;100.00;99825.10;105310;1261;70328;-50
2023/04/15 02:32:43;;;;;;;1.10;1.00;;;;;;;7.01;100.00;99826.88;105397;1260;71390;-51
2023/04/15 02:35:12;;;;;;;1.10;0.90;;;;;;;7.00;100.00;99835.83;106350;1260;63230;-52
2023/04/15 02:37:42;;;;;;;1.60;1.20;;;;;;;6.99;100.00;99834.97;105429;1260;59803;-54
2023/04/15 02:40:11;;;;;;;1.90;1.10;;;;;;;6.98;100.00;99841.77;106510;1258;73114;-53
2023/04/15 02:42:40;;;;;;;0.90;0.80;;;;;;;6.97;100.00;99844.33;105454;1261;65014;-53
2023/04/15 02:45:13;;;;;;;2.20;0.90;;;;;;;6.94;100.00;99843.16;105628;1257;70460;-53
2023/04/15 02:47:45;;;;;;;1.10;0.90;;;;;;;6.93;100.00;99839.47;105331;1260;61711;-54
2023/04/15 02:50:14;;;;;;;1.20;1.10;;;;;;;6.93;100.00;99838.92;105229;1258;60718;-52
2023/04/15 02:52:42;;;;;;;1.20;1.00;;;;;;;6.93;100.00;99838.92;105605;1260;72030;-53
2023/04/15 02:55:10;;;;;;;1.30;1.20;;;;;;;6.91;100.00;99839.33;105956;1258;67470;-52
2023/04/15 02:57:39;;;;;;;1.30;0.90;;;;;;;6.91;100.00;99841.12;106324;1258;73850;-52
2023/04/15 03:00:10;;;;;;;0.90;0.90;;;;;;;6.91;100.00;99836.66;105932;1260;61356;-53
2023/04/15 03:02:44;;;;;;;1.90;1.10;;;;;;;6.89;100.00;99839.23;105948;1260;59717;-52
2023/04/15 03:05:13;;;;;;;1.90;1.20;;;;;;;6.88;100.00;99835.17;105371;1257;74565;-49
2023/04/15 03:07:52;;;;;;;2.20;1.30;;;;;;;6.86;100.00;99832.17;106557;1258;67392;-52
2023/04/15 03:10:21;;;;;;;2.10;1.10;;;;;;;6.81;100.00;99828.03;105639;1258;72935;-51
2023/04/15 03:12:49;;;;;;;1.50;1.20;;;;;;;6.79;100.00;99834.56;105559;1258;60754;-52
2023/04/15 03:15:25;;;;;;;1.60;1.10;;;;;;;6.78;100.00;99835.11;105817;1260;59466;-51
2023/04/15 03:17:54;;;;;;;1.70;1.10;;;;;;;6.76;100.00;99833.92;105424;1260;71192;-49
2023/04/15 03:20:22;;;;;;;2.60;1.80;;;;;;;6.75;100.00;99830.73;105641;1260;66253;-53
2023/04/15 03:22:54;;;;;;;2.00;1.60;;;;;;;6.75;100.00;99834.13;105496;1260;72094;-53
2023/04/15 03:25:24;;;;;;;1.70;1.30;;;;;;;6.73;100.00;99834.39;106172;1257;62272;-52
2023/04/15 03:27:52;;;;;;;1.70;1.20;;;;;;;6.71;100.00;99835.33;105567;1256;60271;-52
2023/04/15 03:30:31;;;;;;;3.20;1.90;;;;;;;6.72;100.00;99833.69;105437;1257;73001;-52
2023/04/15 03:33:01;;;;;;;1.90;1.40;;;;;;;6.70;100.00;99830.90;105562;1261;67326;-51
2023/04/15 03:35:29;;;;;;;3.40;1.60;;;;;;;6.69;100.00;99835.57;105718;1258;71580;-52
2023/04/15 03:37:57;;;;;;;1.70;1.60;;;;;;;6.68;100.00;99845.59;105525;1257;62483;-52
2023/04/15 03:40:25;;;;;;;1.30;1.20;;;;;;;6.66;100.00;99844.05;105774;1260;60946;-51
2023/04/15 03:42:53;;;;;;;1.80;1.70;;;;;;;6.65;100.00;99842.65;105305;1257;73090;-52
2023/04/15 03:45:23;;;;;;;1.80;1.70;;;;;;;6.64;100.00;99837.52;105405;1256;66515;-51
2023/04/15 03:47:51;;;;;;;5.00;1.70;;;;;;;6.61;100.00;99832.45;105398;1261;71524;-52
2023/04/15 03:50:20;;;;;;;1.90;1.80;;;;;;;6.61;100.00;99831.02;106335;1260;64375;-49
2023/04/15 03:52:49;;;;;;;1.60;1.30;;;;;;;6.59;100.00;99833.91;105293;1259;60391;-53
2023/04/15 03:55:19;;;;;;;2.50;1.30;;;;;;;6.57;100.00;99838.44;105462;1257;73022;-52
2023/04/15 03:57:47;;;;;;;2.80;1.60;;;;;;;6.55;100.00;99841.19;105331;1264;68319;-50
2023/04/15 04:00:15;;;;;;;1.90;1.70;;;;;;;6.54;100.00;99846.23;105342;1258;72864;-51
2023/04/15 04:02:45;;;;;;;2.80;1.40;;;;;;;6.54;100.00;99848.70;105368;1258;60083;-49
2023/04/15 04:05:15;;;;;;;2.60;1.50;;;;;;;6.56;100.00;99849.19;107027;1257;59588;-45
2023/04/15 04:07:43;;;;;;;5.60;1.30;;;;;;;6.56;100.00;99850.23;105366;1260;73146;-50
2023/04/15 04:10:12;;;;;;;3.70;1.30;;;;;;;6.57;100.00;99848.24;105544;1256;66079;-51
2023/04/15 04:12:40;;;;;;;1.70;1.10;;;;;;;6.57;100.00;99854.48;105294;1257;71613;-52
2023/04/15 04:15:09;;;;;;;3.30;1.10;;;;;;;6.57;100.00;99855.36;105237;1260;61657;-52
2023/04/15 04:17:37;;;;;;;2.70;1.30;;;;;;;6.59;100.00;99856.23;107048;1257;59727;-53
2023/04/15 04:20:06;;;;;;;3.50;1.60;;;;;;;6.59;100.00;99855.16;105577;1260;72242;-52
2023/04/15 04:22:45;;;;;;;3.20;1.20;;;;;;;6.60;100.00;99856.72;105610;1256;66815;-54
2023/04/15 04:25:13;;;;;;;1.80;1.40;;;;;;;6.61;100.00;99861.69;105247;1257;71986;-51
2023/04/15 04:27:41;;;;;;;2.10;1.90;;;;;;;6.61;100.00;99861.52;105205;1256;62450;-50
2023/04/15 04:30:15;;;;;;;1.40;1.30;;;;;;;6.60;100.00;99861.55;105213;1257;59611;-47
2023/04/15 04:32:46;;;;;;;3.70;1.40;;;;;;;6.59;100.00;99862.45;105302;1257;73967;-52
2023/04/15 04:35:14;;;;;;;2.10;1.20;;;;;;;6.59;100.00;99858.71;105166;1257;68393;-49
2023/04/15 04:37:42;;;;;;;1.40;1.30;;;;;;;6.59;100.00;99854.27;106391;1256;71790;-50
2023/04/15 04:40:12;;;;;;;3.20;1.60;;;;;;;6.58;100.00;99854.27;105650;1257;62258;-49
2023/04/15 04:42:39;;;;;;;3.60;1.80;;;;;;;6.59;100.00;99849.45;105540;1254;59625;-49
2023/04/15 04:45:10;;;;;;;1.30;1.10;;;;;;;6.60;100.00;99848.69;105461;1252;72026;-54
2023/04/15 04:47:38;;;;;;;3.70;1.30;;;;;;;6.63;100.00;99845.75;105419;1254;66267;-51
2023/04/15 04:50:07;;;;;;;2.00;1.30;;;;;;;6.67;100.00;99850.98;109261;1253;72099;-48
2023/04/15 04:52:37;;;;;;;1.90;1.10;;;;;;;6.71;100.00;99853.01;109242;1254;61258;-52
2023/04/15 04:55:07;;;;;;;5.80;1.40;;;;;;;6.74;100.00;99852.88;106639;1252;61281;-51
2023/04/15 04:57:36;;;;;;;1.50;1.40;;;;;;;6.77;100.00;99851.92;108012;1254;73589;-48
2023/04/15 05:00:07;;;;;;;2.10;1.20;;;;;;;6.78;100.00;99846.70;105593;1253;66580;-52
2023/04/15 05:02:35;;;;;;;3.30;1.20;;;;;;;6.80;100.00;99846.30;109281;1253;72156;-49
2023/04/15 05:05:05;;;;;;;3.00;1.30;;;;;;;6.80;100.00;99846.97;109172;1252;62600;-51
2023/04/15 05:07:35;;;;;;;2.10;1.30;;;;;;;6.80;100.00;99845.76;109294;1253;61115;-49
2023/04/15 05:10:03;;;;;;;2.10;1.30;;;;;;;6.80;100.00;99845.89;109255;1252;73065;-52
2023/04/15 05:12:31;;;;;;;5.00;1.40;;;;;;;6.81;100.00;99846.59;109302;1254;66047;-50
2023/04/15 05:15:00;;;;;;;2.00;1.40;;;;;;;6.81;100.00;99855.67;109199;1253;72946;-50
2023/04/15 05:17:32;;;;;;;1.50;1.40;;;;;;;6.83;100.00;99864.20;108360;1251;60984;-47
2023/04/15 05:20:01;;;;;;;3.20;1.40;;;;;;;6.85;100.00;99863.98;109164;1253;59345;-50
2023/04/15 05:22:32;;;;;;;1.70;1.20;;;;;;;6.88;100.00;99867.11;105539;1255;72639;-50
2023/04/15 05:25:02;;;;;;;3.20;1.60;;;;;;;6.90;100.00;99865.41;105014;1254;68025;-54
2023/04/15 05:27:31;;;;;;;2.10;1.40;;;;;;;6.93;100.00;99870.66;105176;1254;72820;-53
2023/04/15 05:30:00;;;;;;;1.70;1.30;;;;;;;6.94;100.00;99872.26;105430;1253;61417;-48
2023/04/15 05:32:31;;;;;;;1.90;1.70;;;;;;;6.94;100.00;99875.11;106243;1254;59885;-51
2023/04/15 05:34:59;;;;;;;2.40;1.90;;;;;;;6.92;100.00;99869.80;105223;1254;72329;-51
2023/04/15 05:37:28;;;;;;;4.50;1.90;;;;;;;6.92;100.00;99869.29;106546;1254;69599;-48
2023/04/15 05:39:55;;;;;;;4.80;1.80;;;;;;;6.90;100.00;99874.85;105537;1254;72565;-52
2023/04/15 05:42:24;;;;;;;3.20;1.30;;;;;;;6.90;100.00;99882.34;106551;1254;62527;-51
2023/04/15 05:44:54;;;;;;;3.60;2.10;;;;;;;6.90;100.00;99883.61;105541;1253;60797;-51
2023/04/15 05:47:22;;;;;;;2.40;1.50;;;;;;;6.88;100.00;99881.02;105665;1257;74859;-52
2023/04/15 05:49:51;;;;;;;4.40;1.70;;;;;;;6.86;100.00;99883.39;106000;1256;67383;-52
2023/04/15 05:52:25;;;;;;;5.00;1.90;;;;;;;6.83;100.00;99875.96;105608;1254;71471;-52
2023/04/15 05:54:54;;;;;;;1.40;1.10;;;;;;;6.82;100.00;99877.23;105533;1257;62526;-51
2023/04/15 05:57:22;;;;;;;1.60;1.30;;;;;;;6.82;100.00;99881.70;106119;1255;61503;-52
2023/04/15 05:59:52;;;;;;;7.60;1.70;;;;;;;6.83;100.00;99881.50;105616;1256;73085;-51
2023/04/15 06:02:21;;;;;;;1.90;1.40;;;;;;;6.81;100.00;99881.00;105615;1255;65468;-52
2023/04/15 06:04:50;;;;;;;2.10;1.40;;;;;;;6.81;100.00;99882.60;105528;1253;72242;-52
2023/04/15 06:07:18;;;;;;;2.40;1.60;;;;;;;6.85;100.00;99881.80;106371;1254;61570;-52
2023/04/15 06:09:46;;;;;;;2.40;1.30;;;;;;;6.87;100.00;99891.20;105974;1256;60530;-53
2023/04/15 06:12:21;;;;;;;2.60;1.50;;;;;;;6.88;100.00;99892.80;105551;1253;74125;-50
2023/04/15 06:14:50;;;;;;;4.50;1.10;;;;;;;6.87;100.00;99898.53;105660;1254;68471;-53
2023/04/15 06:17:18;;;;;;;1.50;1.20;;;;;;;6.88;100.00;99896.90;105654;1254;70550;-52
2023/04/15 06:19:49;;;;;;;2.40;1.20;;;;;;;6.87;100.00;99892.64;105704;1256;62337;-54
2023/04/15 06:22:17;;;;;;;1.20;1.10;;;;;;;6.86;100.00;99893.37;105792;1254;60470;-52
2023/04/15 06:24:45;;;;;;;4.00;1.30;;;;;;;6.84;100.00;99893.41;105700;1256;73950;-53
2023/04/15 06:27:13;;;;;;;3.40;1.10;;;;;;;6.85;100.00;99895.35;105686;1256;68084;-53
2023/04/15 06:29:41;;;;;;;1.00;0.90;;;;;;;6.86;100.00;99894.43;105314;1254;73924;-52
2023/04/15 06:32:13;;;;;;;1.70;1.40;;;;;;;6.88;100.00;99896.19;105045;1252;62085;-51
2023/04/15 06:34:42;;;;;;;1.20;1.10;;;;;;;6.87;100.00;99897.80;105250;1254;60504;-54
2023/04/15 06:37:14;;;;;;;4.50;1.20;;;;;;;6.86;100.00;99904.45;104965;1252;74277;-53
2023/04/15 06:39:44;;;;;;;1.00;0.80;;;;;;;6.86;100.00;99903.73;104736;1254;68767;-50
2023/04/15 06:42:12;;;;;;;1.60;1.40;;;;;;;6.84;100.00;99904.12;105816;1254;71795;-53
2023/04/15 06:44:40;;;;;;;1.90;1.00;;;;;;;6.83;100.00;99899.33;105409;1256;60957;-52
2023/04/15 06:47:08;;;;;;;4.70;1.50;;;;;;;6.81;100.00;99907.06;104986;1254;61526;-51
2023/04/15 06:49:37;;;;;;;1.90;1.10;;;;;;;6.78;100.00;99905.02;106167;1257;72967;-53
2023/04/15 06:52:05;;;;;;;2.90;1.10;;;;;;;6.76;100.00;99905.07;105247;1254;66054;-53
2023/04/15 06:54:33;;;;;;;2.00;1.60;;;;;;;6.75;100.00;99900.66;105520;1253;72906;-51
2023/04/15 06:57:01;;;;;;;1.80;1.60;;;;;;;6.71;100.00;99900.07;106139;1253;61245;-52
2023/04/15 06:59:30;;;;;;;3.30;1.10;;;;;;;6.70;100.00;99904.02;105602;1256;60663;-52
2023/04/15 07:01:58;;;;;;;2.70;1.20;;;;;;;6.71;100.00;99900.63;105233;1254;72521;-53
2023/04/15 07:04:29;;;;;;;1.10;1.00;;;;;;;6.71;100.00;99904.54;105236;1256;65004;-49
2023/04/15 07:06:57;;;;;;;1.20;0.90;;;;;;;6.72;100.00;99905.04;108334;1253;73938;-52
2023/04/15 07:09:25;;;;;;;1.20;1.10;;;;;;;6.74;100.00;99906.39;106295;1254;63588;-52
2023/04/15 07:11:58;;;;;;;1.00;0.90;;;;;;;6.76;100.00;99907.75;105745;1257;60405;-52
2023/04/15 07:14:26;;;;;;;1.20;0.90;;;;;;;6.78;100.00;99903.96;105637;1252;73040;-52
2023/04/15 07:16:56;;;;;;;1.60;1.10;;;;;;;6.83;100.00;99901.14;105608;1254;68060;-50
2023/04/15 07:19:25;;;;;;;1.20;0.90;;;;;;;6.87;100.00;99894.06;105983;1256;73528;-51
2023/04/15 07:21:53;;;;;;;1.10;1.00;;;;;;;6.93;100.00;99901.54;106244;1256;60977;-53
2023/04/15 07:24:25;;;;;;;1.40;0.90;;;;;;;6.98;100.00;99898.34;106314;1257;60436;-49
2023/04/15 07:26:57;;;;;;;1.30;0.80;;;;;;;7.01;100.00;99906.45;109149;1253;72978;-51
2023/04/15 07:29:28;;;;;;;1.30;0.90;;;;;;;7.03;100.00;99908.53;106352;1256;66226;-53
2023/04/15 07:31:56;;;;;;;1.30;0.80;;;;;;;7.05;100.00;99904.20;106529;1253;72151;-52
2023/04/15 07:34:24;;;;;;;3.70;0.80;;;;;;;7.04;100.00;99906.55;105643;1254;61083;-52
2023/04/15 07:36:53;;;;;;;5.40;1.10;;;;;;;7.02;100.00;99910.16;105628;1253;60430;-51
2023/04/15 07:39:22;;;;;;;0.90;0.80;;;;;;;7.02;100.00;99913.38;105462;1254;73853;-50
2023/04/15 07:41:50;;;;;;;1.50;0.80;;;;;;;7.02;100.00;99917.48;105473;1255;66294;-52
2023/04/15 07:44:19;;;;;;;1.60;0.80;;;;;;;7.03;100.00;99916.55;105727;1253;70868;-49
2023/04/15 07:46:47;;;;;;;1.20;0.70;;;;;;;7.03;100.00;99916.73;105617;1257;60450;-51
2023/04/15 07:49:23;;;;;;;1.20;0.90;;;;;;;7.02;100.00;99914.63;105489;1253;60468;-51
2023/04/15 07:51:51;;;;;;;1.80;0.90;;;;;;;7.03;100.00;99911.94;108967;1253;73736;-53
2023/04/15 07:54:19;;;;;;;3.10;0.90;;;;;;;7.01;100.00;99917.50;106592;1253;67229;-49
2023/04/15 07:56:47;;;;;;;0.80;0.80;;;;;;;7.00;100.00;99918.79;109192;1253;71551;-51
2023/04/15 07:59:16;;;;;;;2.00;1.10;;;;;;;6.97;100.00;99918.01;109231;1252;62040;-52
2023/04/15 08:01:47;;;;;;;1.20;0.90;;;;;;;6.94;100.00;99919.18;109131;1254;60500;-52
2023/04/15 08:04:15;;;;;;;1.40;0.90;;;;;;;6.91;100.00;99930.48;109145;1254;71645;-52
2023/04/15 08:06:49;;;;;;;1.70;0.90;;;;;;;6.90;100.00;99927.14;109189;1256;65200;-50
2023/04/15 08:09:18;;;;;;;1.30;1.00;;;;;;;6.89;100.00;99930.38;109141;1252;72068;-52
2023/04/15 08:11:47;;;;;;;3.30;1.00;;;;;;;6.89;100.00;99934.13;109225;1252;61094;-52
2023/04/15 08:14:17;;;;;;;1.50;0.70;;;;;;;6.90;100.00;99934.99;109328;1253;59387;-52
2023/04/15 08:16:45;;;;;;;1.50;0.70;;;;;;;6.90;100.00;99936.41;109248;1253;74043;-52
2023/04/15 08:19:14;;;;;;;1.90;0.80;;;;;;;6.90;100.00;99931.42;109127;1252;68075;-52
2023/04/15 08:21:42;;;;;;;2.70;0.90;;;;;;;6.90;100.00;99931.77;109251;1253;70833;-52
2023/04/15 08:24:11;;;;;;;0.80;0.70;;;;;;;6.92;100.00;99933.50;109277;1252;62184;-52
2023/04/15 08:26:42;;;;;;;1.90;0.90;;;;;;;6.94;100.00;99940.41;106517;1252;60112;-51
2023/04/15 08:29:11;;;;;;;2.10;0.80;;;;;;;6.93;100.00;99939.70;105684;1254;73050;-50
2023/04/15 08:31:39;;;;;;;0.80;0.70;;;;;;;6.91;100.00;99934.24;109247;1253;68091;-52
2023/04/15 08:34:13;;;;;;;4.70;0.70;;;;;;;6.87;100.00;99932.61;109273;1253;72997;-52
2023/04/15 08:36:41;;;;;;;1.60;0.80;;;;;;;6.84;100.00;99931.06;109271;1253;61867;-52
2023/04/15 08:39:13;;;;;;;2.00;1.00;;;;;;;6.83;100.00;99934.12;107898;1253;60421;-52
2023/04/15 08:41:48;;;;;;;2.30;0.90;;;;;;;6.82;100.00;99932.36;105623;1254;71727;-51
2023/04/15 08:44:20;;;;;;;0.80;0.70;;;;;;;6.82;100.00;99933.44;105738;1254;67314;-49
2023/04/15 08:46:50;;;;;;;1.00;0.70;;;;;;;6.81;100.00;99928.11;106620;1253;72661;-52
2023/04/15 08:49:19;;;;;;;1.80;0.60;;;;;;;6.79;100.00;99930.14;108234;1257;61066;-53
2023/04/15 08:51:49;;;;;;;1.00;0.70;;;;;;;6.79;100.00;99933.02;105546;1253;60536;-50
2023/04/15 08:54:22;;;;;;;1.70;0.70;;;;;;;6.78;100.00;99931.43;105664;1254;75194;-50
2023/04/15 08:56:52;;;;;;;0.80;0.60;;;;;;;6.77;100.00;99927.88;107566;1257;68414;-52
2023/04/15 08:59:21;;;;;;;0.80;0.60;;;;;;;6.79;100.00;99929.27;106000;1254;73910;-52
2023/04/15 09:01:50;;;;;;;2.40;0.80;;;;;;;6.80;100.00;99927.44;105943;1253;63187;-50
2023/04/15 09:04:18;;;;;;;0.90;0.70;;;;;;;6.82;100.00;99931.11;106081;1252;60427;-48
2023/04/15 09:06:47;;;;;;;1.00;0.80;;;;;;;6.86;100.00;99935.48;105579;1252;75090;-51
2023/04/15 09:09:16;;;;;;;1.80;1.00;;;;;;;6.88;100.00;99931.14;105747;1255;68362;-51
2023/04/15 09:11:44;;;;;;;1.20;0.80;;;;;;;6.89;100.00;99930.91;106012;1254;73844;-51
2023/04/15 09:14:12;;;;;;;2.80;0.90;;;;;;;6.90;100.00;99929.80;109124;1253;61472;-52
2023/04/15 09:17:00;;;;;;;1.60;0.90;;;;;;;6.91;100.00;99932.63;107275;1253;60487;-52
2023/04/15 09:19:29;;;;;;;2.90;0.90;;;;;;;6.86;100.00;99941.35;106175;1254;74995;-53
2023/04/15 09:21:57;;;;;;;2.60;1.10;;;;;;;6.78;100.00;99945.33;106276;1253;68828;-51
2023/04/15 09:24:35;;;;;;;5.10;0.90;;;;;;;6.73;100.00;99945.66;106244;1256;72805;-51
2023/04/15 09:27:03;;;;;;;1.00;0.80;;;;;;;6.72;100.00;99954.27;105741;1254;61385;-51
2023/04/15 09:29:31;;;;;;;1.80;1.00;;;;;;;6.71;100.00;99955.38;105802;1257;61475;-52
2023/04/15 09:32:10;;;;;;;1.50;0.80;;;;;;;6.71;100.00;99954.66;105906;1253;74033;-53
2023/04/15 09:34:40;;;;;;;1.90;0.80;;;;;;;6.72;100.00;99960.30;105730;1254;67913;-53
2023/04/15 09:37:09;;;;;;;1.50;0.90;;;;;;;6.74;100.00;99965.77;106087;1254;75068;-51
2023/04/15 09:39:48;;;;;;;2.30;0.80;;;;;;;6.76;100.00;99958.95;105819;1256;61713;-52
2023/04/15 09:42:23;;;;;;;3.80;0.80;;;;;;;6.77;100.00;99951.42;106099;1253;60515;-50
2023/04/15 09:44:51;;;;;;;1.70;0.70;;;;;;;6.78;100.00;99946.41;106000;1254;73797;-51
2023/04/15 09:47:30;;;;;;;1.60;0.90;;;;;;;6.80;100.00;99941.86;105625;1253;66738;-53
2023/04/15 09:49:59;;;;;;;1.30;0.90;;;;;;;6.81;100.00;99939.88;106025;1255;72794;-52
2023/04/15 09:52:27;;;;;;;2.60;0.90;;;;;;;6.81;100.00;99943.63;106504;1254;61440;-52
2023/04/15 09:54:57;;;;;;;3.60;0.90;;;;;;;6.81;100.00;99943.29;109189;1253;60521;-53
2023/04/15 09:57:32;;;;;;;1.10;1.00;;;;;;;6.80;100.00;99950.79;105917;1257;74018;-49
2023/04/15 10:00:07;;;;;;;1.40;1.00;;;;;;;6.82;100.00;99948.95;106043;1253;67276;-48
2023/04/15 10:02:39;;;;;;;1.20;0.90;;;;;;;6.83;100.00;99949.27;105593;1253;70636;-50
2023/04/15 10:05:12;;;;;;;2.20;0.90;;;;;;;6.82;100.00;99949.66;105890;1255;63902;-52
2023/04/15 10:07:41;;;;;;;1.00;0.90;;;;;;;6.82;100.00;99944.66;106570;1257;60389;-51
2023/04/15 10:10:10;;;;;;;2.30;1.20;;;;;;;6.82;100.00;99948.77;106167;1253;74770;-52
2023/04/15 10:12:39;;;;;;;6.20;1.10;;;;;;;6.83;100.00;99953.38;105608;1254;67404;-53
2023/04/15 10:15:11;;;;;;;1.40;1.30;;;;;;;6.84;100.00;99961.73;106785;1254;71245;-52
2023/04/15 10:17:43;;;;;;;2.00;1.10;;;;;;;6.85;100.00;99956.38;105980;1253;60634;-51
2023/04/15 10:20:11;;;;;;;2.20;1.00;;;;;;;6.85;100.00;99962.43;105733;1252;60542;-52
2023/04/15 10:22:40;;;;;;;1.20;1.10;;;;;;;6.84;100.00;99964.41;109322;1251;74107;-53
2023/04/15 10:25:08;;;;;;;1.90;0.80;;;;;;;6.84;100.00;99971.73;106403;1255;66164;-52
2023/04/15 10:27:39;;;;;;;1.50;0.90;;;;;;;6.85;100.00;99971.54;105710;1257;72177;-52
2023/04/15 10:30:08;;;;;;;2.10;0.90;;;;;;;6.86;100.00;99964.91;105691;1254;62967;-51
2023/04/15 10:32:36;;;;;;;1.60;1.50;;;;;;;6.87;100.00;99964.89;105653;1256;60361;-52
2023/04/15 10:35:05;;;;;;;1.70;0.90;;;;;;;6.87;100.00;99963.98;107077;1254;73498;-53
2023/04/15 10:37:36;;;;;;;8.00;0.90;;;;;;;6.86;100.00;99973.45;105611;1254;68946;-53
2023/04/15 10:40:33;;;;;;;1.90;0.90;;;;;;;6.83;100.00;99974.42;106681;1252;71361;-52
2023/04/15 10:43:01;;;;;;;1.20;0.80;;;;;;;6.82;100.00;99973.56;106037;1256;60936;-49
2023/04/15 10:45:36;;;;;;;4.00;0.80;;;;;;;6.82;100.00;99974.27;105658;1253;60510;-48
2023/04/15 10:48:06;;;;;;;1.20;0.70;;;;;;;6.85;100.00;99971.35;106006;1254;72710;-49
2023/04/15 10:50:34;;;;;;;1.20;1.00;;;;;;;6.86;100.00;99974.90;105619;1254;66251;-50
2023/04/15 10:53:03;;;;;;;1.10;0.90;;;;;;;6.87;100.00;99978.63;105369;1256;72401;-51
2023/04/15 10:55:32;;;;;;;5.30;0.90;;;;;;;6.87;100.00;99972.21;105421;1255;60306;-50
2023/04/15 10:58:01;;;;;;;1.70;1.10;;;;;;;6.84;100.00;99972.43;105523;1254;60396;-52
2023/04/15 11:00:30;;;;;;;1.70;1.20;;;;;;;6.80;100.00;99975.96;109137;1253;73014;-53
2023/04/15 11:03:05;;;;;;;2.20;1.00;;;;;;;6.75;100.00;99973.97;109263;1253;67118;-53
2023/04/15 11:05:40;;;;;;;4.10;1.60;;;;;;;6.72;100.00;99978.69;109297;1252;72705;-53
2023/04/15 11:08:11;;;;;;;1.20;0.80;;;;;;;6.71;100.00;99979.42;109241;1253;60023;-52
2023/04/15 11:10:39;;;;;;;2.40;2.20;;;;;;;6.69;100.00;99983.23;109214;1253;58267;-52
2023/04/15 11:13:10;;;;;;;1.50;1.10;;;;;;;6.67;100.00;99973.30;109149;1254;73962;-53
2023/04/15 11:15:41;;;;;;;2.20;1.20;;;;;;;6.66;100.00;99960.85;108976;1252;67226;-52
2023/04/15 11:18:22;;;;;;;1.00;0.80;;;;;;;6.66;100.00;99966.20;109188;1253;72248;-53
2023/04/15 11:20:56;;;;;;;2.80;0.90;;;;;;;6.67;100.00;99963.48;109231;1252;59927;-51
2023/04/15 11:23:28;;;;;;;2.80;1.00;;;;;;;6.69;100.00;99968.08;109197;1252;60180;-50
2023/04/15 11:25:56;;;;;;;1.10;0.90;;;;;;;6.72;100.00;99975.10;109269;1253;73438;-50
2023/04/15 11:28:26;;;;;;;2.10;0.90;;;;;;;6.74;100.00;99968.80;109300;1253;67281;-51
2023/04/15 11:30:54;;;;;;;2.50;0.90;;;;;;;6.75;100.00;99960.23;105668;1253;73772;-52
2023/04/15 11:33:24;;;;;;;2.20;0.90;;;;;;;6.76;100.00;99961.42;109164;1252;62105;-53
2023/04/15 11:35:55;;;;;;;2.00;1.00;;;;;;;6.78;100.00;99963.34;109289;1253;59120;-53
2023/04/15 11:38:23;;;;;;;1.50;0.90;;;;;;;6.78;100.00;99963.52;109291;1253;72907;-52